Weather History for Tampa Macdill AFB, FL

Change the Weather History Date:

Saturday, December 29, 2012

  Actual Average Record
Temperature  
Mean Temperature 64 °F -  
Max Temperature 73 °F 67 °F 78 °F (1996)
Min Temperature 54 °F 50 °F 27 °F (2010)
Degree Days  
Heating Degree Days 1    
Growing Degree Days 14 (Base 50)    
Moisture  
Dew Point 66 °F    
Average Humidity 96    
Maximum Humidity 100    
Minimum Humidity 75    
Precipitation  
Precipitation 0.23 in - - ()
Sea Level Pressure  
Sea Level Pressure 29.97 in    
Wind  
Wind Speed 13 mph (WSW)    
Max Wind Speed 22 mph    
Max Gust Speed 25 mph    
Visibility 6 miles    
Events Fog , Rain    
Averages and records for this station are not official NWS values.
T = Trace of Precipitation, MM = Missing Value Source: NWS Daily Summary

Daily Weather History Graph

Daily Weather History Graph

Search for Another Location

Airport:

Trip Planner

Search our weather history database for the weather conditions in past years. The results will help you decide how hot, cold, wet, or windy it might be!

Date:

Astronomy

Dec. 29, 2012 Rise Set
Actual Time 7:20 AM EST 5:44 PM EST
Civil Twilight 6:54 AM EST 6:10 PM EST
Nautical Twilight 6:25 AM EST 6:39 PM EST
Astronomical Twilight 5:56 AM EST 7:08 PM EST
Moon 7:07 PM EST (12/29) 8:00 AM EST (12/29)
Length of Visible Light 11h 15m
Length of Day
10h 24m
Full, 98% of the Moon is Illuminated
Dec 29
Full
Jan 4
Last Quarter
Jan 11
New
Jan 18
First Quarter
Jan 26
Full

Hourly Weather History & Observations

Time (EST) Temp. Dew Point Humidity Pressure Visibility Wind Dir Wind Speed Gust Speed Precip Events Conditions
12:13 AM 64.4 °F 64.4 °F 100% 29.93 in 6.0 mi South 6.9 mph - N/A   Mostly Cloudy
12:23 AM 64.4 °F 64.4 °F 100% 29.93 in 6.0 mi South 9.2 mph - N/A   Mostly Cloudy
12:52 AM 64.4 °F 64.4 °F 100% 29.91 in 9.0 mi South 10.4 mph - N/A   Partly Cloudy
12:55 AM 65.1 °F 65.1 °F 100% 29.91 in 9.0 mi South 9.2 mph - 0.02 in   Partly Cloudy
1:55 AM 66.4 °F 66.2 °F 99% 29.90 in 10.0 mi SSW 13.8 mph - N/A   Mostly Cloudy
2:55 AM 66.9 °F 66.9 °F 100% 29.88 in 10.0 mi SSW 13.8 mph - N/A   Partly Cloudy
3:29 AM 66.2 °F 66.2 °F 100% 29.89 in 10.0 mi SSW 10.4 mph - N/A   Mostly Cloudy
3:45 AM 66.2 °F 66.2 °F 100% 29.90 in 10.0 mi SSW 11.5 mph - N/A   Overcast
3:55 AM 67.3 °F 67.3 °F 100% 29.89 in 10.0 mi SSW 13.8 mph - N/A   Mostly Cloudy
4:14 AM 68.0 °F 68.0 °F 100% 29.89 in 9.0 mi SW 13.8 mph - N/A   Overcast
4:22 AM 68.0 °F 68.0 °F 100% 29.90 in 9.0 mi SW 17.3 mph - N/A   Overcast
4:35 AM 68.0 °F 68.0 °F 100% 29.89 in 9.0 mi SW 17.3 mph - N/A   Overcast
4:37 AM 68.0 °F 68.0 °F 100% 29.89 in 8.0 mi SW 16.1 mph - N/A   Overcast
4:55 AM 68.4 °F 68.4 °F 100% 29.90 in 9.0 mi SW 18.4 mph - N/A   Overcast
5:12 AM 68.0 °F 68.0 °F 100% 29.90 in 8.0 mi SW 18.4 mph - N/A   Overcast
5:19 AM 68.0 °F 68.0 °F 100% 29.91 in 8.0 mi SW 17.3 mph - N/A   Overcast
5:24 AM 68.0 °F 68.0 °F 100% 29.91 in 7.0 mi SW 16.1 mph - N/A   Overcast
5:28 AM 68.0 °F 68.0 °F 100% 29.90 in 6.0 mi SW 19.6 mph 25.3 mph N/A   Overcast
5:42 AM 68.0 °F 68.0 °F 100% 29.91 in 6.0 mi SW 17.3 mph - N/A   Overcast
5:54 AM 68.0 °F 68.0 °F 100% 29.93 in 5.0 mi SW 13.8 mph - N/A   Overcast
5:55 AM 68.0 °F 68.0 °F 100% 29.93 in 5.0 mi SW 13.8 mph - N/A   Overcast
6:03 AM 68.0 °F 68.0 °F 100% 29.93 in 3.0 mi SW 13.8 mph - N/A   Overcast
6:04 AM 68.0 °F 68.0 °F 100% 29.93 in 2.5 mi SW 13.8 mph - N/A   Overcast
6:06 AM 68.0 °F 68.0 °F 100% 29.93 in 2.0 mi SW 13.8 mph - N/A   Overcast
6:07 AM 68.0 °F 68.0 °F 100% 29.93 in 1.8 mi SW 13.8 mph - N/A   Overcast
6:09 AM 68.0 °F 68.0 °F 100% 29.93 in 1.2 mi SW 13.8 mph - N/A   Overcast
6:10 AM 68.0 °F 68.0 °F 100% 29.93 in 1.2 mi SW 13.8 mph - N/A   Overcast
6:11 AM 68.0 °F 68.0 °F 100% 29.93 in 1.0 mi SW 13.8 mph - N/A   Overcast
6:12 AM 68.0 °F 68.0 °F 100% 29.93 in 1.0 mi SW 12.7 mph - N/A   Light Drizzle
6:15 AM 68.0 °F 68.0 °F 100% 29.93 in 1.0 mi SW 12.7 mph - N/A   Light Drizzle
6:17 AM 68.0 °F 68.0 °F 100% 29.93 in 0.8 mi SW 13.8 mph - N/A   Light Drizzle
6:21 AM 68.0 °F 68.0 °F 100% 29.93 in 1.0 mi SW 12.7 mph - N/A   Light Drizzle
6:22 AM 68.0 °F 68.0 °F 100% 29.93 in 1.0 mi SW 12.7 mph - N/A Rain Light Rain
6:26 AM 68.0 °F 68.0 °F 100% 29.93 in 1.2 mi SW 12.7 mph - N/A Rain Light Rain
6:29 AM 68.0 °F 68.0 °F 100% 29.94 in 1.5 mi SW 10.4 mph - N/A Rain Light Rain
6:31 AM 68.0 °F 68.0 °F 100% 29.94 in 1.8 mi SW 10.4 mph - N/A Rain Light Rain
6:32 AM 68.0 °F 68.0 °F 100% 29.94 in 2.0 mi SW 10.4 mph - N/A Rain Light Rain
6:36 AM 68.0 °F 68.0 °F 100% 29.94 in 3.0 mi SW 10.4 mph - N/A Rain Light Rain
6:55 AM 68.0 °F 68.0 °F 100% 29.95 in 4.0 mi WSW 8.1 mph - 0.01 in Rain Light Rain
6:58 AM 68.0 °F 68.0 °F 100% 29.95 in 4.0 mi WSW 10.4 mph - N/A Rain Light Rain
7:10 AM 68.0 °F 68.0 °F 100% 29.95 in 5.0 mi West 10.4 mph - N/A Rain Light Rain
7:11 AM 68.0 °F 68.0 °F 100% 29.95 in 4.0 mi West 9.2 mph - N/A Rain Light Rain
7:21 AM 68.0 °F 68.0 °F 100% 29.95 in 4.0 mi WSW 10.4 mph - N/A Rain Light Rain
7:24 AM 68.0 °F 68.0 °F 100% 29.95 in 3.0 mi WSW 9.2 mph - N/A   Overcast
7:31 AM 68.0 °F 68.0 °F 100% 29.95 in 3.0 mi WSW 10.4 mph - N/A   Light Drizzle
7:34 AM 68.0 °F 68.0 °F 100% 29.95 in 3.0 mi WSW 10.4 mph - N/A   Light Drizzle
7:38 AM 68.0 °F 68.0 °F 100% 29.96 in 3.0 mi WSW 10.4 mph - N/A Rain Light Rain
7:50 AM 68.0 °F 68.0 °F 100% 29.96 in 3.0 mi WSW 10.4 mph - N/A   Overcast
7:55 AM 67.3 °F 67.3 °F 100% 29.96 in 3.0 mi WSW 12.7 mph - 0.01 in   Overcast
8:09 AM 68.0 °F 68.0 °F 100% 29.97 in 3.0 mi SW 12.7 mph - N/A Rain Light Rain
8:15 AM 68.0 °F 68.0 °F 100% 29.97 in 3.0 mi SW 15.0 mph - N/A Rain Light Rain
8:29 AM 68.0 °F 68.0 °F 100% 29.98 in 2.5 mi WSW 9.2 mph - N/A Rain Light Rain
8:32 AM 68.0 °F 68.0 °F 100% 29.99 in 1.8 mi West 12.7 mph - N/A Rain Light Rain
8:33 AM 68.0 °F 68.0 °F 100% 29.98 in 1.2 mi West 15.0 mph - N/A Rain Light Rain
8:34 AM 68.0 °F 68.0 °F 100% 29.98 in 1.0 mi WSW 15.0 mph - N/A Rain Light Rain
8:35 AM 68.0 °F 68.0 °F 100% 29.99 in 1.0 mi WSW 15.0 mph - N/A Rain Heavy Rain
8:36 AM 68.0 °F 68.0 °F 100% 29.98 in 0.8 mi WSW 13.8 mph - N/A Rain Heavy Rain
8:39 AM 68.0 °F 68.0 °F 100% 29.98 in 0.5 mi WSW 15.0 mph - N/A Fog , Rain Heavy Rain
8:40 AM 68.0 °F 68.0 °F 100% 29.98 in 0.5 mi SW 16.1 mph - N/A Fog , Rain Rain
8:42 AM 68.0 °F 68.0 °F 100% 29.98 in 0.8 mi WSW 16.1 mph - N/A Rain Light Rain
8:44 AM 68.0 °F 68.0 °F 100% 29.98 in 1.0 mi WSW 19.6 mph - N/A Rain Light Rain
8:45 AM 68.0 °F 68.0 °F 100% 29.98 in 1.2 mi WSW 21.9 mph - N/A Rain Light Rain
8:46 AM 68.0 °F 68.0 °F 100% 29.98 in 1.8 mi WSW 19.6 mph - N/A Rain Light Rain
8:47 AM 68.0 °F 68.0 °F 100% 29.98 in 2.5 mi WSW 18.4 mph - N/A Rain Light Rain
8:48 AM 68.0 °F 68.0 °F 100% 29.98 in 3.0 mi WSW 18.4 mph - N/A Rain Light Rain
8:55 AM 68.9 °F 68.9 °F 100% 29.99 in 3.0 mi WSW 15.0 mph - 0.18 in Rain Light Rain
9:02 AM 68.0 °F 68.0 °F 100% 29.99 in 6.0 mi WSW 16.1 mph - N/A   Overcast
9:24 AM 68.0 °F 68.0 °F 100% 29.99 in 5.0 mi WSW 9.2 mph - N/A Rain Light Rain
9:37 AM 68.0 °F 68.0 °F 100% 29.99 in 7.0 mi WSW 12.7 mph - N/A   Mostly Cloudy
9:43 AM 68.0 °F 68.0 °F 100% 30.00 in 10.0 mi West 10.4 mph - N/A   Mostly Cloudy
9:47 AM 68.0 °F 68.0 °F 100% 30.00 in 10.0 mi West 10.4 mph - N/A   Mostly Cloudy
9:55 AM 69.1 °F 69.1 °F 100% 30.00 in 10.0 mi West 9.2 mph - 0.01 in   Mostly Cloudy
9:56 AM 69.8 °F 69.8 °F 100% 30.00 in 10.0 mi West 9.2 mph - N/A   Mostly Cloudy
10:32 AM 69.8 °F 69.8 °F 100% 30.01 in 10.0 mi WNW 11.5 mph - N/A   Overcast
10:36 AM 69.8 °F 69.8 °F 100% 30.01 in 10.0 mi WNW 9.2 mph - N/A   Overcast
10:45 AM 69.8 °F 69.8 °F 100% 30.01 in 10.0 mi WNW 10.4 mph - N/A   Overcast
10:55 AM 70.2 °F 70.2 °F 100% 30.01 in 10.0 mi WNW 9.2 mph - N/A   Mostly Cloudy
11:32 AM 71.6 °F 71.6 °F 100% 30.00 in 10.0 mi NW 9.2 mph - N/A   Mostly Cloudy
11:55 AM 72.0 °F 68.5 °F 89% 30.00 in 10.0 mi NW 9.2 mph - N/A   Mostly Cloudy
12:00 PM 73.4 °F 68.0 °F 83% 30.00 in 10.0 mi NW 6.9 mph - N/A   Scattered Clouds
12:55 PM 72.1 °F 67.6 °F 86% 29.98 in 10.0 mi NNW 13.8 mph 19.6 mph N/A   Scattered Clouds
1:38 PM 69.8 °F 66.2 °F 88% 29.98 in 10.0 mi North 12.7 mph 23.0 mph N/A   Mostly Cloudy
1:41 PM 69.8 °F 66.2 °F 88% 29.98 in 10.0 mi NNW 13.8 mph 23.0 mph N/A   Mostly Cloudy
1:46 PM 69.8 °F 66.2 °F 88% 29.98 in 10.0 mi NNW 15.0 mph 23.0 mph N/A   Mostly Cloudy
1:55 PM 69.4 °F 65.7 °F 88% 29.98 in 10.0 mi NNW 13.8 mph 20.7 mph N/A   Overcast
2:23 PM 68.0 °F 64.4 °F 88% 29.99 in 10.0 mi NNW 12.7 mph 23.0 mph N/A   Overcast
2:37 PM 66.2 °F 62.6 °F 88% 29.99 in 10.0 mi NNW 12.7 mph 20.7 mph N/A   Overcast
2:55 PM 66.9 °F 62.6 °F 86% 29.99 in 10.0 mi NNW 12.7 mph 19.6 mph N/A   Overcast
3:29 PM 66.2 °F 60.8 °F 83% 30.00 in 10.0 mi NNW 16.1 mph 23.0 mph N/A   Scattered Clouds
3:55 PM 65.8 °F 59.9 °F 81% 30.01 in 10.0 mi NNW 12.7 mph 24.2 mph N/A   Partly Cloudy
4:55 PM 63.9 °F 57.7 °F 80% 30.03 in 10.0 mi NNW 12.7 mph 20.7 mph N/A   Clear
5:55 PM 60.1 °F 55.0 °F 83% 30.05 in 10.0 mi NNW 15.0 mph 25.3 mph N/A   Clear
6:55 PM 58.8 °F 54.7 °F 86% 30.08 in 10.0 mi NNW 16.1 mph 21.9 mph N/A   Clear
7:55 PM 58.3 °F 52.9 °F 82% 30.11 in 10.0 mi NNW 12.7 mph 25.3 mph N/A   Partly Cloudy
8:55 PM 57.4 °F 52.3 °F 83% 30.14 in 10.0 mi NNW 13.8 mph 21.9 mph N/A   Clear
9:55 PM 57.0 °F 50.9 °F 80% 30.15 in 10.0 mi NNW 10.4 mph 19.6 mph N/A   Clear
10:55 PM 57.0 °F 49.1 °F 75% 30.17 in 10.0 mi North 15.0 mph 20.7 mph N/A   Clear
11:26 PM 57.2 °F 51.8 °F 82% 30.18 in 10.0 mi North 10.4 mph 19.6 mph N/A   Mostly Cloudy
11:37 PM 55.4 °F 50.0 °F 82% 30.18 in 10.0 mi North 15.0 mph 24.2 mph N/A   Scattered Clouds
11:55 PM 54.3 °F 48.7 °F 81% 30.19 in 10.0 mi North 15.0 mph 24.2 mph N/A   Partly Cloudy